createdAt,value
2019-03-03T00:00:40.626Z,20.23
2019-03-03T00:03:06.841Z,19.93
2019-03-03T00:05:32.887Z,21.70
2019-03-03T00:07:59.126Z,20.40
2019-03-03T00:10:25.175Z,22.33
2019-03-03T00:12:51.443Z,19.97
2019-03-03T00:15:17.455Z,22.27
2019-03-03T00:17:43.612Z,20.93
2019-03-03T00:20:11.435Z,21.23
2019-03-03T00:22:37.485Z,22.77
2019-03-03T00:25:06.063Z,22.13
2019-03-03T00:27:32.193Z,24.27
2019-03-03T00:29:58.255Z,22.70
2019-03-03T00:32:24.314Z,23.17
2019-03-03T00:34:50.560Z,23.20
2019-03-03T00:37:24.725Z,23.47
2019-03-03T00:40:02.154Z,21.50
2019-03-03T00:42:36.477Z,24.47
2019-03-03T00:45:24.620Z,24.63
2019-03-03T00:48:09.379Z,22.97
2019-03-03T00:50:37.346Z,22.73
2019-03-03T00:53:05.347Z,28.73
2019-03-03T00:55:45.883Z,29.30
2019-03-03T00:58:22.568Z,25.50
2019-03-03T01:00:51.088Z,23.30
2019-03-03T01:03:19.113Z,26.93
2019-03-03T01:05:56.430Z,26.10
2019-03-03T01:08:30.614Z,33.63
2019-03-03T01:11:15.134Z,26.70
2019-03-03T01:13:43.131Z,25.47
2019-03-03T01:16:11.202Z,25.83
2019-03-03T01:18:39.246Z,26.40
2019-03-03T01:21:10.109Z,26.00
2019-03-03T01:23:40.856Z,25.47
2019-03-03T01:26:06.981Z,25.47
2019-03-03T01:28:36.389Z,26.77
2019-03-03T01:31:02.675Z,26.73
2019-03-03T01:33:28.888Z,25.23
2019-03-03T01:35:54.970Z,27.37
2019-03-03T01:38:21.100Z,25.90
2019-03-03T01:40:47.155Z,27.63
2019-03-03T01:43:13.204Z,30.67
2019-03-03T01:45:39.303Z,29.13
2019-03-03T01:48:05.423Z,29.60
2019-03-03T01:50:31.555Z,29.43
2019-03-03T01:52:57.653Z,32.07
2019-03-03T01:55:23.732Z,31.77
2019-03-03T01:57:49.977Z,30.50
2019-03-03T02:00:24.702Z,30.27
2019-03-03T02:02:51.026Z,32.07
2019-03-03T02:05:17.702Z,31.47
2019-03-03T02:07:44.236Z,30.40
2019-03-03T02:10:10.512Z,31.77
2019-03-03T02:12:36.566Z,30.13
2019-03-03T02:15:04.261Z,31.73
2019-03-03T02:17:30.558Z,34.53
2019-03-03T02:19:56.748Z,30.60
2019-03-03T02:22:22.773Z,31.97
2019-03-03T02:24:48.986Z,32.13
2019-03-03T02:27:15.191Z,32.17
2019-03-03T02:29:41.322Z,31.80
2019-03-03T02:32:07.420Z,33.80
2019-03-03T02:34:33.607Z,30.57
2019-03-03T02:36:59.731Z,33.33
2019-03-03T02:39:25.854Z,32.20
2019-03-03T02:41:51.988Z,34.27
2019-03-03T02:44:18.146Z,33.60
2019-03-03T02:46:44.293Z,33.20
2019-03-03T02:49:10.466Z,34.10
2019-03-03T02:51:36.756Z,33.00
2019-03-03T02:54:03.404Z,34.90
2019-03-03T02:56:33.835Z,33.77
2019-03-03T02:59:00.218Z,34.43
2019-03-03T03:01:31.041Z,33.73
2019-03-03T03:03:57.075Z,33.10
2019-03-03T03:06:25.087Z,35.67
2019-03-03T03:09:10.163Z,34.37
2019-03-03T03:11:38.804Z,31.30
2019-03-03T03:14:06.916Z,33.87
2019-03-03T03:16:51.718Z,35.93
2019-03-03T03:19:20.102Z,33.07
2019-03-03T03:21:48.133Z,32.23
2019-03-03T03:24:25.057Z,35.90
2019-03-03T03:27:02.070Z,33.93
2019-03-03T03:29:35.729Z,34.10
2019-03-03T03:32:22.120Z,32.87
2019-03-03T03:35:06.573Z,33.07
2019-03-03T03:37:34.948Z,32.57
2019-03-03T03:40:05.466Z,31.90
2019-03-03T03:42:39.613Z,34.20
2019-03-03T03:45:10.288Z,32.73
2019-03-03T03:47:44.231Z,36.73
2019-03-03T03:50:21.305Z,34.70
2019-03-03T03:52:49.379Z,34.50
2019-03-03T03:55:17.931Z,33.80
2019-03-03T03:57:48.899Z,32.17
2019-03-03T04:00:33.562Z,34.80
2019-03-03T04:03:07.884Z,37.23
2019-03-03T04:05:44.757Z,36.43
2019-03-03T04:08:20.651Z,34.73
2019-03-03T04:11:05.381Z,35.70
2019-03-03T04:13:34.161Z,35.00
2019-03-03T04:16:04.994Z,35.13
2019-03-03T04:18:33.144Z,35.80
2019-03-03T04:21:01.059Z,36.53
2019-03-03T04:23:31.774Z,34.23
2019-03-03T04:26:08.447Z,34.10
2019-03-03T04:28:53.449Z,35.90
2019-03-03T04:31:24.180Z,38.97
2019-03-03T04:33:52.424Z,33.40
2019-03-03T04:36:21.843Z,34.07
2019-03-03T04:39:06.593Z,33.60
2019-03-03T04:41:37.322Z,33.10
2019-03-03T04:44:08.379Z,33.73
2019-03-03T04:46:42.195Z,33.70
2019-03-03T04:49:26.624Z,34.90
2019-03-03T04:51:58.008Z,32.37
2019-03-03T04:54:43.969Z,34.27
2019-03-03T04:57:27.377Z,36.70
2019-03-03T05:00:04.313Z,31.53
2019-03-03T05:02:38.703Z,31.33
2019-03-03T05:05:08.348Z,33.67
2019-03-03T05:07:36.294Z,33.00
2019-03-03T05:10:06.740Z,31.20
2019-03-03T05:12:53.044Z,37.07
2019-03-03T05:15:21.046Z,30.50
2019-03-03T05:17:49.017Z,29.47
2019-03-03T05:20:16.459Z,31.70
2019-03-03T05:22:42.704Z,31.17
2019-03-03T05:25:10.261Z,31.90
2019-03-03T05:27:36.522Z,28.60
2019-03-03T05:30:08.932Z,29.17
2019-03-03T05:32:35.128Z,30.90
2019-03-03T05:35:01.253Z,29.97
2019-03-03T05:37:27.289Z,30.80
2019-03-03T05:39:53.366Z,34.57
2019-03-03T05:42:19.625Z,29.77
2019-03-03T05:44:45.841Z,29.40
2019-03-03T05:47:11.988Z,31.00
2019-03-03T05:49:38.114Z,28.00
2019-03-03T05:52:04.255Z,30.10
2019-03-03T05:54:30.314Z,28.53
2019-03-03T05:56:56.487Z,26.70
2019-03-03T05:59:22.726Z,29.10
2019-03-03T06:01:48.865Z,28.03
2019-03-03T06:04:14.901Z,28.17
2019-03-03T06:06:41.036Z,29.70
2019-03-03T06:09:07.129Z,27.27
2019-03-03T06:11:33.218Z,29.20
2019-03-03T06:13:59.270Z,28.83
2019-03-03T06:16:25.409Z,28.57
2019-03-03T06:18:51.465Z,27.40
2019-03-03T06:21:17.553Z,27.67
2019-03-03T06:23:43.590Z,27.77
2019-03-03T06:26:09.594Z,28.93
2019-03-03T06:28:35.654Z,26.70
2019-03-03T06:31:01.802Z,28.07
2019-03-03T06:33:27.929Z,27.07
2019-03-03T06:35:53.975Z,26.67
2019-03-03T06:38:20.000Z,25.50
2019-03-03T06:40:46.037Z,26.57
2019-03-03T06:43:12.178Z,28.07
2019-03-03T06:45:38.271Z,26.70
2019-03-03T06:48:04.428Z,25.73
2019-03-03T06:50:30.553Z,25.50
2019-03-03T06:52:56.585Z,26.67
2019-03-03T06:55:22.885Z,25.20
2019-03-03T06:57:48.922Z,25.10
2019-03-03T07:00:17.627Z,25.17
2019-03-03T07:02:43.813Z,24.13
2019-03-03T07:05:09.856Z,23.57
2019-03-03T07:07:36.415Z,25.27
2019-03-03T07:10:04.274Z,26.20
2019-03-03T07:12:30.511Z,24.40
2019-03-03T07:14:56.740Z,24.53
2019-03-03T07:17:22.907Z,23.87
2019-03-03T07:19:50.045Z,23.40
2019-03-03T07:22:16.277Z,23.77
2019-03-03T07:24:43.754Z,23.20
2019-03-03T07:27:09.779Z,22.97
2019-03-03T07:29:35.879Z,23.60
2019-03-03T07:32:03.250Z,25.37
2019-03-03T07:34:29.396Z,23.93
2019-03-03T07:36:55.649Z,24.63
2019-03-03T07:39:21.827Z,24.80
2019-03-03T07:41:48.078Z,23.60
2019-03-03T07:44:14.271Z,24.00
2019-03-03T07:46:40.463Z,23.17
2019-03-03T07:49:06.737Z,24.60
2019-03-03T07:51:33.251Z,26.07
2019-03-03T07:54:01.429Z,24.33
2019-03-03T07:56:27.858Z,25.40
2019-03-03T07:58:53.921Z,22.60
2019-03-03T08:01:20.116Z,25.03
2019-03-03T08:03:46.178Z,23.30
2019-03-03T08:06:12.206Z,23.53
2019-03-03T08:08:38.317Z,23.10
2019-03-03T08:11:04.804Z,21.67
2019-03-03T08:13:30.963Z,22.53
2019-03-03T08:15:57.213Z,23.87
2019-03-03T08:18:23.377Z,23.87
2019-03-03T08:20:49.534Z,22.97
2019-03-03T08:23:15.749Z,21.77
2019-03-03T08:25:42.069Z,22.07
2019-03-03T08:28:08.495Z,22.60
2019-03-03T08:30:34.629Z,21.80
2019-03-03T08:33:00.767Z,20.93
2019-03-03T08:35:28.716Z,19.90
2019-03-03T08:37:54.861Z,21.93
2019-03-03T08:40:20.910Z,20.70
2019-03-03T08:43:05.408Z,20.87
2019-03-03T08:45:33.508Z,19.27
2019-03-03T08:48:07.694Z,18.10
2019-03-03T08:50:52.632Z,18.90
2019-03-03T08:53:20.678Z,17.87
2019-03-03T08:55:51.384Z,18.10
2019-03-03T08:58:22.295Z,15.83
2019-03-03T09:01:06.935Z,17.80
2019-03-03T09:03:38.160Z,16.67
2019-03-03T09:06:06.235Z,17.83
2019-03-03T09:08:46.092Z,16.00
2019-03-03T09:11:17.005Z,15.93
2019-03-03T09:14:01.955Z,15.30
2019-03-03T09:16:39.167Z,16.53
2019-03-03T09:19:12.821Z,16.37
2019-03-03T09:21:40.762Z,15.87
2019-03-03T09:24:14.928Z,14.73
2019-03-03T09:26:59.722Z,15.00
2019-03-03T09:29:34.643Z,13.03
2019-03-03T09:32:08.437Z,13.53
2019-03-03T09:34:53.012Z,12.97
2019-03-03T09:37:25.504Z,12.73
2019-03-03T09:40:09.868Z,13.90
2019-03-03T09:42:56.494Z,13.80
2019-03-03T09:45:42.155Z,13.10
2019-03-03T09:48:15.437Z,11.63
2019-03-03T09:51:02.628Z,11.30
2019-03-03T09:53:31.175Z,12.00
2019-03-03T09:56:11.647Z,11.27
2019-03-03T09:58:39.695Z,13.03
2019-03-03T10:01:07.820Z,12.53
2019-03-03T10:03:38.667Z,12.70
2019-03-03T10:06:23.746Z,10.67
2019-03-03T10:08:57.603Z,11.27
2019-03-03T10:11:34.881Z,10.33
2019-03-03T10:14:03.151Z,9.70
2019-03-03T10:16:43.078Z,9.33
2019-03-03T10:19:11.162Z,9.80
2019-03-03T10:21:41.670Z,9.63
2019-03-03T10:24:09.620Z,11.20
2019-03-03T10:26:49.719Z,11.00
2019-03-03T10:29:29.401Z,9.70
2019-03-03T10:32:16.717Z,9.80
2019-03-03T10:35:02.267Z,9.60
2019-03-03T10:37:33.184Z,10.03
2019-03-03T10:40:13.036Z,10.93
2019-03-03T10:42:43.887Z,10.80
2019-03-03T10:45:14.786Z,10.03
2019-03-03T10:47:49.039Z,10.40
2019-03-03T10:50:23.143Z,9.63
2019-03-03T10:53:03.401Z,11.73
2019-03-03T10:55:31.529Z,11.57
2019-03-03T10:58:02.929Z,11.83
2019-03-03T11:00:34.268Z,11.53
2019-03-03T11:03:06.664Z,12.30
2019-03-03T11:05:37.275Z,12.20
2019-03-03T11:08:14.007Z,11.33
2019-03-03T11:10:42.039Z,11.70
2019-03-03T11:13:19.084Z,13.23
2019-03-03T11:15:59.203Z,11.30
2019-03-03T11:18:27.312Z,9.07
2019-03-03T11:21:14.753Z,10.87
2019-03-03T11:23:45.896Z,10.43
2019-03-03T11:26:22.983Z,8.40
2019-03-03T11:29:03.083Z,9.60
2019-03-03T11:31:47.985Z,9.40
2019-03-03T11:34:19.033Z,8.00
2019-03-03T11:36:53.956Z,8.00
2019-03-03T11:39:22.089Z,7.97
2019-03-03T11:41:50.171Z,8.17
2019-03-03T11:44:20.920Z,7.70
2019-03-03T11:47:05.642Z,7.50
2019-03-03T11:49:34.857Z,7.70
2019-03-03T11:52:24.783Z,7.30
2019-03-03T11:55:11.057Z,8.27
2019-03-03T11:57:39.397Z,7.37
2019-03-03T12:00:13.692Z,7.80
2019-03-03T12:03:00.261Z,7.47
2019-03-03T12:05:37.348Z,7.97
2019-03-03T12:08:11.093Z,7.70
2019-03-03T12:10:48.128Z,6.83
2019-03-03T12:13:22.228Z,7.13
2019-03-03T12:16:06.822Z,6.53
2019-03-03T12:18:37.506Z,6.90
2019-03-03T12:21:22.054Z,7.47
2019-03-03T12:24:00.966Z,6.70
2019-03-03T12:26:33.531Z,6.37
2019-03-03T12:29:01.537Z,6.60
2019-03-03T12:31:29.619Z,7.20
2019-03-03T12:34:06.591Z,6.67
2019-03-03T12:36:40.950Z,6.53
2019-03-03T12:39:13.002Z,6.83
2019-03-03T12:41:54.830Z,7.00
2019-03-03T12:44:26.077Z,5.80
2019-03-03T12:46:54.136Z,5.97
2019-03-03T12:49:31.363Z,5.53
2019-03-03T12:52:11.285Z,5.40
2019-03-03T12:54:42.425Z,5.40
2019-03-03T12:57:13.339Z,5.30
2019-03-03T12:59:58.038Z,5.50
2019-03-03T13:02:42.794Z,5.63
2019-03-03T13:05:23.593Z,6.00
2019-03-03T13:07:51.596Z,4.57
2019-03-03T13:10:19.645Z,6.07
2019-03-03T13:12:47.666Z,4.77
2019-03-03T13:15:24.786Z,5.80
2019-03-03T13:18:00.103Z,4.23
2019-03-03T13:20:28.230Z,4.90
2019-03-03T13:23:07.988Z,4.67
2019-03-03T13:25:36.542Z,4.70
2019-03-03T13:28:04.842Z,4.97
2019-03-03T13:30:49.900Z,5.60
2019-03-03T13:33:20.787Z,4.60
2019-03-03T13:35:54.952Z,5.30
2019-03-03T13:38:38.790Z,5.30
2019-03-03T13:41:06.953Z,4.50
2019-03-03T13:43:34.361Z,4.97
2019-03-03T13:46:00.638Z,4.70
2019-03-03T13:48:27.934Z,5.23
2019-03-03T13:50:54.269Z,4.47
2019-03-03T13:53:20.756Z,5.07
2019-03-03T13:55:46.943Z,4.80
2019-03-03T13:58:13.123Z,4.53
2019-03-03T14:00:39.653Z,4.60
2019-03-03T14:03:05.949Z,5.77
2019-03-03T14:05:32.011Z,4.33
2019-03-03T14:07:58.197Z,5.07
2019-03-03T14:10:24.315Z,4.90
2019-03-03T14:12:50.414Z,4.73
2019-03-03T14:15:18.010Z,4.83
2019-03-03T14:17:44.281Z,5.10
2019-03-03T14:20:14.288Z,4.67
2019-03-03T14:22:40.578Z,7.03
2019-03-03T14:25:09.182Z,5.40
2019-03-03T14:27:35.399Z,4.70
2019-03-03T14:30:03.661Z,4.97
2019-03-03T14:32:29.882Z,4.63
2019-03-03T14:34:55.938Z,5.43
2019-03-03T14:37:21.960Z,5.20
2019-03-03T14:39:48.110Z,5.63
2019-03-03T14:42:14.554Z,4.90
2019-03-03T14:44:40.627Z,5.50
2019-03-03T14:47:06.815Z,5.83
2019-03-03T14:49:32.968Z,5.80
2019-03-03T14:51:59.068Z,7.40
2019-03-03T14:54:25.199Z,5.50
2019-03-03T14:56:51.243Z,6.20
2019-03-03T14:59:17.388Z,7.10
2019-03-03T15:01:43.659Z,6.07
2019-03-03T15:04:09.833Z,7.10
2019-03-03T15:06:36.125Z,7.03
2019-03-03T15:09:05.911Z,7.70
2019-03-03T15:11:32.075Z,6.57
2019-03-03T15:13:58.163Z,30.07
2019-03-03T15:16:24.281Z,8.53
2019-03-03T15:18:50.517Z,11.57
2019-03-03T15:21:24.720Z,7.70
2019-03-03T15:23:44.675Z,11.47
2019-03-03T15:26:10.739Z,7.37
2019-03-03T15:28:36.886Z,8.83
2019-03-03T15:31:03.326Z,6.60
2019-03-03T15:33:29.501Z,6.97
2019-03-03T15:35:55.688Z,9.70
2019-03-03T15:38:21.907Z,7.37
2019-03-03T15:40:48.064Z,7.00
2019-03-03T15:43:14.294Z,8.60
2019-03-03T15:45:42.474Z,7.63
2019-03-03T15:48:08.701Z,8.27
2019-03-03T15:50:34.802Z,8.87
2019-03-03T15:53:00.847Z,9.80
2019-03-03T15:55:29.630Z,7.57
2019-03-03T15:57:55.817Z,7.57
2019-03-03T16:00:34.491Z,8.67
2019-03-03T16:03:00.603Z,7.13
2019-03-03T16:05:26.814Z,7.13
2019-03-03T16:07:52.988Z,8.33
2019-03-03T16:10:21.114Z,7.07
2019-03-03T16:12:47.541Z,6.40
2019-03-03T16:15:15.510Z,8.03
2019-03-03T16:17:41.791Z,7.53
2019-03-03T16:20:10.338Z,6.80
2019-03-03T16:22:42.446Z,7.27
2019-03-03T16:25:10.972Z,5.83
2019-03-03T16:27:37.712Z,6.03
2019-03-03T16:30:07.599Z,6.90
2019-03-03T16:32:33.858Z,7.77
2019-03-03T16:35:00.152Z,7.00
2019-03-03T16:37:26.388Z,6.93
2019-03-03T16:39:52.476Z,6.90
2019-03-03T16:42:18.606Z,6.93
2019-03-03T16:44:44.747Z,7.50
2019-03-03T16:47:10.913Z,7.57
2019-03-03T16:49:36.946Z,7.37
2019-03-03T16:52:03.401Z,9.40
2019-03-03T16:54:29.473Z,7.80
2019-03-03T16:56:55.527Z,8.83
2019-03-03T16:59:23.651Z,9.07
2019-03-03T17:01:49.836Z,7.90
2019-03-03T17:04:16.016Z,8.40
2019-03-03T17:06:42.161Z,9.43
2019-03-03T17:09:09.906Z,9.10
2019-03-03T17:11:36.016Z,10.27
2019-03-03T17:14:02.172Z,9.50
2019-03-03T17:16:28.293Z,10.17
2019-03-03T17:18:54.356Z,10.17
2019-03-03T17:21:20.481Z,9.43
2019-03-03T17:23:46.617Z,9.87
2019-03-03T17:26:12.758Z,10.57
2019-03-03T17:28:38.967Z,9.37
2019-03-03T17:31:05.240Z,9.17
2019-03-03T17:33:31.553Z,10.57
2019-03-03T17:35:58.027Z,10.07
2019-03-03T17:38:24.389Z,10.00
2019-03-03T17:40:50.820Z,9.47
2019-03-03T17:43:17.249Z,9.53
2019-03-03T17:45:43.549Z,9.70
2019-03-03T17:48:09.750Z,9.23
2019-03-03T17:50:35.947Z,8.77
2019-03-03T17:53:03.226Z,9.13
2019-03-03T17:55:29.343Z,9.80
2019-03-03T17:57:55.481Z,9.40
2019-03-03T18:00:24.233Z,8.60
2019-03-03T18:02:51.003Z,9.40
2019-03-03T18:05:18.149Z,8.80
2019-03-03T18:07:44.891Z,8.93
2019-03-03T18:10:11.370Z,7.90
2019-03-03T18:12:37.658Z,8.93
2019-03-03T18:15:06.551Z,8.63
2019-03-03T18:17:32.744Z,9.30
2019-03-03T18:19:58.804Z,8.80
2019-03-03T18:22:24.927Z,7.70
2019-03-03T18:24:51.708Z,8.90
2019-03-03T18:27:18.100Z,8.80
2019-03-03T18:29:44.426Z,13.37
2019-03-03T18:32:10.654Z,9.00
2019-03-03T18:34:37.050Z,15.70
2019-03-03T18:37:03.203Z,9.50
2019-03-03T18:39:29.287Z,11.73
2019-03-03T18:41:55.319Z,8.67
2019-03-03T18:44:21.365Z,8.20
2019-03-03T18:46:47.391Z,8.40
2019-03-03T18:49:13.552Z,13.00
2019-03-03T18:51:40.924Z,9.23
2019-03-03T18:54:07.006Z,10.17
2019-03-03T18:56:33.136Z,11.03
2019-03-03T18:58:59.229Z,7.87
2019-03-03T19:01:25.911Z,7.73
2019-03-03T19:03:52.369Z,8.47
2019-03-03T19:06:18.528Z,7.93
2019-03-03T19:08:44.583Z,6.97
2019-03-03T19:11:10.651Z,6.57
2019-03-03T19:13:36.747Z,7.83
2019-03-03T19:16:03.091Z,7.70
2019-03-03T19:18:29.219Z,7.37
2019-03-03T19:20:55.400Z,7.60
2019-03-03T19:23:21.930Z,7.90
2019-03-03T19:25:48.203Z,7.00
2019-03-03T19:28:14.381Z,7.87
2019-03-03T19:30:40.946Z,6.93
2019-03-03T19:33:13.882Z,6.83
2019-03-03T19:35:41.338Z,8.30
2019-03-03T19:38:42.816Z,7.47
2019-03-03T19:41:19.827Z,7.07
2019-03-03T19:43:46.054Z,7.50
2019-03-03T19:46:12.636Z,7.60
2019-03-03T19:48:40.253Z,8.70
2019-03-03T19:51:06.499Z,7.57
2019-03-03T19:53:32.634Z,8.60
2019-03-03T19:55:58.914Z,8.80
2019-03-03T19:58:25.570Z,9.47
2019-03-03T20:00:52.082Z,10.77
2019-03-03T20:03:18.735Z,10.07
2019-03-03T20:05:47.104Z,11.60
2019-03-03T20:08:15.662Z,12.13
2019-03-03T20:10:42.370Z,12.07
2019-03-03T20:13:08.698Z,13.50
2019-03-03T20:15:36.387Z,14.30
2019-03-03T20:18:04.210Z,15.00
2019-03-03T20:20:30.745Z,15.30
2019-03-03T20:22:57.517Z,17.63
2019-03-03T20:25:24.140Z,16.97
2019-03-03T20:27:50.404Z,16.70
2019-03-03T20:30:23.394Z,17.23
2019-03-03T20:32:49.789Z,17.10
2019-03-03T20:35:15.996Z,15.20
2019-03-03T20:37:42.326Z,16.07
2019-03-03T20:40:19.544Z,15.23
2019-03-03T20:42:45.696Z,18.70
2019-03-03T20:45:14.872Z,14.77
2019-03-03T20:47:41.132Z,14.70
2019-03-03T20:50:10.267Z,14.00
2019-03-03T20:52:36.862Z,14.40
2019-03-03T20:55:06.198Z,15.50
2019-03-03T20:57:32.470Z,14.20
2019-03-03T20:59:58.885Z,14.47
2019-03-03T21:02:24.928Z,15.07
2019-03-03T21:04:51.140Z,15.33
2019-03-03T21:07:17.264Z,13.40
2019-03-03T21:09:43.627Z,14.40
2019-03-03T21:12:09.665Z,13.50
2019-03-03T21:14:35.760Z,15.10
2019-03-03T21:17:01.829Z,13.30
2019-03-03T21:19:27.854Z,13.83
2019-03-03T21:21:53.897Z,14.13
2019-03-03T21:24:20.043Z,14.90
2019-03-03T21:26:46.172Z,15.20
2019-03-03T21:29:12.194Z,14.43
2019-03-03T21:31:38.230Z,15.30
2019-03-03T21:34:04.249Z,14.10
2019-03-03T21:36:30.449Z,16.27
2019-03-03T21:38:56.579Z,15.60
2019-03-03T21:41:22.632Z,14.33
2019-03-03T21:43:48.687Z,15.30
2019-03-03T21:46:14.851Z,15.47
2019-03-03T21:48:40.872Z,16.10
2019-03-03T21:51:06.926Z,15.27
2019-03-03T21:53:33.061Z,16.70
2019-03-03T21:55:59.150Z,19.53
2019-03-03T21:58:25.275Z,16.23
2019-03-03T22:00:51.399Z,16.50
2019-03-03T22:03:17.497Z,15.87
2019-03-03T22:05:43.870Z,17.10
2019-03-03T22:08:09.906Z,16.90
2019-03-03T22:10:36.095Z,16.17
2019-03-03T22:13:04.899Z,19.13
2019-03-03T22:15:31.318Z,18.50
2019-03-03T22:17:57.443Z,17.90
2019-03-03T22:20:23.508Z,17.43
2019-03-03T22:22:49.568Z,18.47
2019-03-03T22:25:15.597Z,17.67
2019-03-03T22:27:41.700Z,18.40
2019-03-03T22:30:11.029Z,17.90
2019-03-03T22:32:37.563Z,17.73
2019-03-03T22:35:05.778Z,19.17
2019-03-03T22:37:31.794Z,19.23
2019-03-03T22:39:57.844Z,17.33
2019-03-03T22:42:23.958Z,17.63
2019-03-03T22:44:50.483Z,18.40
2019-03-03T22:47:16.795Z,16.70
2019-03-03T22:49:43.285Z,20.87
2019-03-03T22:52:09.479Z,19.63
2019-03-03T22:54:35.508Z,19.60
2019-03-03T22:57:01.831Z,18.20
2019-03-03T22:59:30.314Z,18.43
2019-03-03T23:01:56.644Z,19.27
2019-03-03T23:04:44.560Z,18.80
2019-03-03T23:07:20.096Z,18.50
2019-03-03T23:10:06.652Z,19.27
2019-03-03T23:12:51.358Z,20.33
2019-03-03T23:15:52.314Z,19.23
2019-03-03T23:18:40.500Z,21.03
2019-03-03T23:21:26.418Z,19.77
2019-03-03T23:23:56.424Z,19.73
2019-03-03T23:26:22.573Z,20.53
2019-03-03T23:28:48.699Z,20.20
2019-03-03T23:31:14.970Z,19.80
2019-03-03T23:33:41.106Z,20.00
2019-03-03T23:36:07.256Z,22.07
2019-03-03T23:38:33.383Z,19.00
2019-03-03T23:40:59.620Z,19.50
2019-03-03T23:43:25.950Z,18.23
2019-03-03T23:45:52.098Z,20.40
2019-03-03T23:48:18.704Z,18.70
2019-03-03T23:50:45.331Z,17.80
2019-03-03T23:53:11.342Z,17.60
2019-03-03T23:55:37.774Z,17.73
2019-03-03T23:58:04.035Z,17.10
